createdAt,value
2023-02-19T00:01:41.753Z,84.64
2023-02-19T00:04:14.849Z,84.41
2023-02-19T00:06:42.326Z,84.21
2023-02-19T00:09:10.730Z,84.35
2023-02-19T00:11:37.848Z,84.50
2023-02-19T00:14:04.890Z,84.70
2023-02-19T00:16:36.554Z,84.80
2023-02-19T00:19:05.233Z,85.13
2023-02-19T00:21:32.304Z,85.23
2023-02-19T00:24:04.035Z,85.32
2023-02-19T00:26:31.434Z,85.38
2023-02-19T00:28:58.759Z,85.58
2023-02-19T00:31:32.808Z,85.29
2023-02-19T00:34:02.401Z,86.34
2023-02-19T00:36:34.100Z,86.17
2023-02-19T00:39:00.941Z,85.77
2023-02-19T00:41:27.923Z,85.65
2023-02-19T00:43:58.583Z,85.50
2023-02-19T00:46:26.689Z,85.22
2023-02-19T00:48:53.981Z,85.22
2023-02-19T00:51:21.798Z,85.08
2023-02-19T00:53:48.739Z,84.69
2023-02-19T00:56:15.486Z,84.78
2023-02-19T00:58:42.423Z,84.71
2023-02-19T01:01:09.547Z,84.64
2023-02-19T01:03:37.135Z,84.59
2023-02-19T01:06:05.262Z,84.52
2023-02-19T01:08:32.853Z,84.36
2023-02-19T01:11:01.703Z,84.51
2023-02-19T01:13:28.822Z,84.37
2023-02-19T01:16:15.484Z,84.68
2023-02-19T01:18:42.570Z,84.72
2023-02-19T01:21:14.862Z,84.58
2023-02-19T01:23:41.757Z,85.03
2023-02-19T01:26:17.472Z,84.45
2023-02-19T01:28:44.832Z,84.06
2023-02-19T01:31:20.163Z,84.10
2023-02-19T01:33:52.537Z,83.93
2023-02-19T01:36:19.340Z,84.28
2023-02-19T01:38:46.260Z,84.22
2023-02-19T01:41:16.073Z,84.10
2023-02-19T01:44:02.693Z,84.39
2023-02-19T01:46:32.882Z,84.52
2023-02-19T01:49:04.939Z,84.50
2023-02-19T01:51:32.887Z,84.45
2023-02-19T01:54:01.610Z,84.55
2023-02-19T01:56:28.812Z,84.48
2023-02-19T01:58:55.459Z,84.34
2023-02-19T02:01:22.145Z,84.08
2023-02-19T02:03:50.012Z,84.10
2023-02-19T02:06:31.862Z,83.98
2023-02-19T02:09:18.247Z,83.91
2023-02-19T02:11:48.515Z,83.69
2023-02-19T02:14:16.948Z,83.45
2023-02-19T02:17:08.483Z,83.95
2023-02-19T02:20:02.623Z,84.01
2023-02-19T02:22:53.316Z,84.23
2023-02-19T02:25:31.985Z,83.83
2023-02-19T02:28:23.713Z,84.25
2023-02-19T02:31:00.054Z,86.99
2023-02-19T02:33:33.015Z,87.18
2023-02-19T02:36:13.416Z,86.28
2023-02-19T02:38:42.280Z,85.13
2023-02-19T02:41:09.533Z,85.88
2023-02-19T02:43:36.636Z,86.79
2023-02-19T02:46:03.749Z,85.02
2023-02-19T02:48:38.865Z,86.34
2023-02-19T02:51:20.769Z,85.36
2023-02-19T02:54:16.236Z,84.83
2023-02-19T02:56:44.449Z,84.69
2023-02-19T02:59:16.744Z,84.18
2023-02-19T03:02:05.129Z,83.65
2023-02-19T03:05:01.549Z,82.40
2023-02-19T03:07:34.502Z,85.04
2023-02-19T03:10:03.662Z,84.74
2023-02-19T03:12:57.541Z,84.53
2023-02-19T03:15:46.632Z,84.25
2023-02-19T03:18:32.339Z,83.89
2023-02-19T03:20:59.503Z,83.36
2023-02-19T03:23:49.916Z,84.04
2023-02-19T03:26:18.359Z,84.89
2023-02-19T03:29:11.746Z,85.64
2023-02-19T03:31:43.174Z,84.67
2023-02-19T03:34:14.476Z,85.12
2023-02-19T03:36:45.593Z,87.40
2023-02-19T03:39:15.400Z,87.93
2023-02-19T03:41:45.750Z,87.11
2023-02-19T03:44:24.866Z,86.33
2023-02-19T03:47:07.321Z,85.69
2023-02-19T03:49:55.389Z,86.36
2023-02-19T03:52:43.253Z,84.56
2023-02-19T03:55:40.912Z,85.42
2023-02-19T03:58:19.722Z,85.88
2023-02-19T04:00:55.516Z,84.54
2023-02-19T04:03:39.060Z,85.07
2023-02-19T04:06:10.968Z,83.49
2023-02-19T04:08:40.127Z,83.04
2023-02-19T04:11:08.421Z,82.37
2023-02-19T04:13:43.478Z,82.43
2023-02-19T04:16:14.074Z,81.63
2023-02-19T04:18:43.024Z,82.49
2023-02-19T04:21:11.046Z,82.48
2023-02-19T04:23:40.778Z,82.60
2023-02-19T04:26:08.468Z,82.04
2023-02-19T04:28:35.895Z,82.14
2023-02-19T04:31:02.661Z,81.83
2023-02-19T04:33:29.350Z,82.25
2023-02-19T04:35:56.018Z,82.23
2023-02-19T04:38:22.782Z,82.26
2023-02-19T04:40:51.592Z,82.42
2023-02-19T04:43:18.535Z,81.90
2023-02-19T04:45:45.138Z,82.02
2023-02-19T04:48:11.842Z,83.94
2023-02-19T04:50:39.741Z,83.31
2023-02-19T04:53:12.752Z,81.74
2023-02-19T04:55:39.738Z,83.12
2023-02-19T04:58:06.383Z,82.92
2023-02-19T05:00:34.257Z,82.90
2023-02-19T05:03:04.051Z,82.71
2023-02-19T05:05:30.667Z,82.86
2023-02-19T05:07:57.997Z,82.04
2023-02-19T05:10:24.642Z,81.34
2023-02-19T05:12:52.094Z,81.38
2023-02-19T05:15:21.788Z,81.70
2023-02-19T05:17:48.480Z,81.98
2023-02-19T05:20:15.140Z,81.98
2023-02-19T05:22:41.823Z,82.31
2023-02-19T05:25:08.527Z,82.67
2023-02-19T05:27:35.393Z,82.32
2023-02-19T05:30:02.165Z,82.00
2023-02-19T05:32:28.927Z,81.93
2023-02-19T05:34:58.591Z,81.69
2023-02-19T05:37:25.278Z,81.92
2023-02-19T05:39:51.997Z,81.97
2023-02-19T05:42:18.669Z,82.72
2023-02-19T05:44:45.362Z,82.11
2023-02-19T05:47:12.089Z,82.83
2023-02-19T05:49:41.830Z,82.77
2023-02-19T05:52:08.490Z,82.84
2023-02-19T05:54:35.148Z,83.01
2023-02-19T05:57:01.859Z,83.28
2023-02-19T05:59:28.557Z,81.99
2023-02-19T06:01:55.459Z,82.79
2023-02-19T06:04:22.428Z,83.31
2023-02-19T06:06:49.191Z,82.81
2023-02-19T06:09:16.095Z,83.56
2023-02-19T06:11:43.721Z,83.03
2023-02-19T06:14:13.362Z,82.61
2023-02-19T06:16:40.040Z,82.19
2023-02-19T06:19:06.752Z,82.34
2023-02-19T06:21:33.577Z,82.07
2023-02-19T06:24:05.181Z,82.21
2023-02-19T06:26:31.783Z,82.27
2023-02-19T06:28:58.377Z,82.86
2023-02-19T06:31:25.270Z,82.68
2023-02-19T06:33:52.045Z,82.88
2023-02-19T06:36:23.236Z,82.90
2023-02-19T06:38:49.914Z,82.93
2023-02-19T06:41:16.882Z,82.49
2023-02-19T06:43:43.554Z,82.55
2023-02-19T06:46:11.646Z,82.41
2023-02-19T06:48:39.166Z,82.77
2023-02-19T06:51:05.910Z,82.79
2023-02-19T06:53:32.690Z,82.66
2023-02-19T06:56:01.310Z,82.38
2023-02-19T06:58:28.040Z,82.91
2023-02-19T07:00:54.830Z,82.29
2023-02-19T07:03:21.609Z,82.25
2023-02-19T07:05:48.659Z,82.48
2023-02-19T07:08:17.441Z,82.35
2023-02-19T07:10:55.537Z,82.38
2023-02-19T07:13:22.907Z,81.91
2023-02-19T07:15:51.944Z,82.07
2023-02-19T07:18:19.011Z,82.77
2023-02-19T07:20:45.735Z,82.86
2023-02-19T07:23:12.342Z,82.60
2023-02-19T07:25:39.438Z,82.69
2023-02-19T07:28:06.834Z,84.05
2023-02-19T07:30:36.563Z,83.79
2023-02-19T07:33:03.222Z,83.38
2023-02-19T07:35:30.902Z,82.08
2023-02-19T07:37:57.521Z,81.99
2023-02-19T07:40:24.113Z,82.25
2023-02-19T07:42:50.717Z,82.82
2023-02-19T07:45:17.456Z,82.57
2023-02-19T07:47:44.197Z,82.20
2023-02-19T07:50:13.743Z,82.07
2023-02-19T07:52:40.654Z,82.41
2023-02-19T07:55:07.382Z,81.62
2023-02-19T07:57:34.013Z,81.55
2023-02-19T08:00:00.745Z,81.26
2023-02-19T08:02:46.086Z,79.26
2023-02-19T08:05:14.010Z,80.69
2023-02-19T08:07:40.692Z,80.07
2023-02-19T08:10:26.485Z,80.51
2023-02-19T08:13:18.965Z,80.38
2023-02-19T08:16:07.546Z,82.07
2023-02-19T08:18:41.919Z,81.38
2023-02-19T08:21:08.944Z,80.99
2023-02-19T08:23:36.984Z,80.35
2023-02-19T08:26:03.923Z,81.05
2023-02-19T08:28:30.935Z,81.55
2023-02-19T08:31:02.525Z,83.01
2023-02-19T08:33:30.545Z,82.48
2023-02-19T08:35:57.928Z,82.72
2023-02-19T08:38:24.601Z,82.43
2023-02-19T08:40:51.315Z,81.24
2023-02-19T08:43:19.416Z,80.01
2023-02-19T08:45:47.548Z,79.74
2023-02-19T08:48:14.654Z,80.79
2023-02-19T08:50:41.569Z,79.01
2023-02-19T08:53:11.320Z,79.80
2023-02-19T08:55:38.751Z,78.56
2023-02-19T08:58:06.171Z,77.08
2023-02-19T09:00:32.914Z,79.01
2023-02-19T09:02:59.693Z,78.05
2023-02-19T09:05:26.336Z,75.44
2023-02-19T09:07:53.113Z,75.40
2023-02-19T09:10:19.892Z,77.29
2023-02-19T09:12:46.771Z,75.67
2023-02-19T09:15:13.476Z,76.42
2023-02-19T09:17:40.131Z,75.36
2023-02-19T09:20:07.167Z,75.44
2023-02-19T09:22:33.909Z,74.01
2023-02-19T09:25:00.609Z,73.18
2023-02-19T09:27:28.069Z,70.69
2023-02-19T09:29:55.209Z,73.47
2023-02-19T09:32:22.113Z,71.23
2023-02-19T09:34:49.855Z,71.05
2023-02-19T09:37:16.659Z,70.98
2023-02-19T09:39:43.561Z,69.82
2023-02-19T09:42:15.805Z,67.42
2023-02-19T09:44:47.412Z,67.97
2023-02-19T09:47:22.786Z,67.03
2023-02-19T09:49:57.614Z,67.02
2023-02-19T09:52:27.941Z,67.63
2023-02-19T09:54:57.917Z,68.55
2023-02-19T09:57:26.480Z,69.84
2023-02-19T10:00:23.938Z,68.47
2023-02-19T10:03:34.605Z,69.29
2023-02-19T10:06:16.854Z,68.75
2023-02-19T10:08:45.694Z,69.50
2023-02-19T10:11:13.347Z,66.12
2023-02-19T10:13:52.833Z,65.98
2023-02-19T10:16:24.507Z,67.20
2023-02-19T10:18:51.247Z,67.45
2023-02-19T10:21:20.239Z,64.24
2023-02-19T10:23:50.537Z,65.19
2023-02-19T10:26:17.312Z,64.01
2023-02-19T10:28:43.966Z,63.13
2023-02-19T10:31:20.697Z,62.53
2023-02-19T10:33:58.425Z,61.91
2023-02-19T10:36:32.408Z,63.34
2023-02-19T10:39:01.049Z,61.33
2023-02-19T10:41:28.240Z,59.32
2023-02-19T10:44:04.092Z,60.99
2023-02-19T10:46:37.194Z,57.36
2023-02-19T10:49:05.583Z,59.34
2023-02-19T10:51:33.727Z,59.54
2023-02-19T10:54:18.023Z,56.10
2023-02-19T10:56:44.775Z,55.73
2023-02-19T10:59:25.256Z,53.83
2023-02-19T11:02:03.680Z,53.20
2023-02-19T11:04:38.534Z,51.47
2023-02-19T11:07:10.001Z,51.46
2023-02-19T11:09:42.836Z,50.56
2023-02-19T11:12:10.569Z,48.67
2023-02-19T11:14:37.334Z,47.68
2023-02-19T11:17:07.815Z,50.00
2023-02-19T11:19:36.683Z,48.61
2023-02-19T11:22:19.111Z,51.54
2023-02-19T11:24:50.288Z,48.46
2023-02-19T11:27:22.460Z,48.00
2023-02-19T11:29:49.481Z,46.42
2023-02-19T11:32:30.428Z,49.48
2023-02-19T11:35:22.705Z,48.10
2023-02-19T11:37:57.358Z,46.07
2023-02-19T11:40:32.745Z,46.56
2023-02-19T11:43:10.042Z,44.96
2023-02-19T11:45:52.906Z,49.34
2023-02-19T11:48:46.040Z,48.76
2023-02-19T11:51:35.866Z,48.64
2023-02-19T11:54:09.001Z,48.97
2023-02-19T11:56:40.986Z,51.08
2023-02-19T11:59:19.315Z,49.85
2023-02-19T12:02:01.780Z,50.66
2023-02-19T12:04:57.751Z,51.95
2023-02-19T12:07:55.668Z,53.50
2023-02-19T12:10:22.306Z,52.59
2023-02-19T12:13:01.298Z,51.07
2023-02-19T12:15:46.722Z,50.99
2023-02-19T12:18:19.361Z,51.75
2023-02-19T12:21:06.672Z,50.54
2023-02-19T12:23:47.095Z,52.21
2023-02-19T12:26:22.238Z,50.66
2023-02-19T12:28:54.955Z,51.54
2023-02-19T12:31:35.376Z,52.29
2023-02-19T12:34:20.237Z,49.87
2023-02-19T12:37:25.055Z,49.66
2023-02-19T12:39:51.564Z,52.46
2023-02-19T12:42:38.249Z,51.91
2023-02-19T12:45:44.413Z,51.20
2023-02-19T12:48:13.927Z,52.59
2023-02-19T12:50:41.435Z,52.70
2023-02-19T12:53:45.588Z,53.31
2023-02-19T12:56:20.467Z,51.74
2023-02-19T12:58:59.154Z,49.46
2023-02-19T13:01:33.912Z,49.79
2023-02-19T13:04:23.542Z,47.73
2023-02-19T13:06:57.910Z,49.00
2023-02-19T13:09:51.256Z,49.32
2023-02-19T13:12:24.642Z,49.16
2023-02-19T13:15:00.769Z,48.96
2023-02-19T13:17:34.962Z,48.50
2023-02-19T13:20:21.762Z,48.22
2023-02-19T13:23:39.275Z,50.84
2023-02-19T13:26:18.610Z,48.52
2023-02-19T13:29:17.025Z,48.44
2023-02-19T13:32:00.114Z,48.61
2023-02-19T13:34:42.072Z,47.90
2023-02-19T13:37:10.025Z,50.16
2023-02-19T13:39:36.893Z,48.89
2023-02-19T13:42:04.103Z,49.04
2023-02-19T13:44:41.012Z,50.63
2023-02-19T13:47:46.240Z,49.55
2023-02-19T13:50:20.588Z,49.67
2023-02-19T13:52:47.433Z,49.00
2023-02-19T13:55:52.220Z,48.75
2023-02-19T13:58:34.121Z,49.19
2023-02-19T14:01:01.728Z,49.13
2023-02-19T14:03:35.399Z,49.69
2023-02-19T14:06:06.183Z,49.71
2023-02-19T14:09:02.296Z,49.08
2023-02-19T14:11:48.267Z,49.90
2023-02-19T14:14:39.623Z,50.54
2023-02-19T14:17:09.349Z,50.46
2023-02-19T14:19:41.916Z,50.21
2023-02-19T14:22:58.260Z,50.02
2023-02-19T14:25:31.022Z,50.25
2023-02-19T14:28:02.843Z,51.80
2023-02-19T14:30:30.773Z,50.64
2023-02-19T14:33:09.724Z,50.73
2023-02-19T14:35:45.760Z,49.72
2023-02-19T14:38:20.128Z,49.51
2023-02-19T14:40:47.775Z,50.93
2023-02-19T14:43:16.453Z,50.84
2023-02-19T14:45:49.822Z,50.51
2023-02-19T14:48:41.647Z,50.16
2023-02-19T14:51:32.056Z,50.81
2023-02-19T14:54:00.887Z,51.29
2023-02-19T14:56:32.283Z,51.96
2023-02-19T14:59:11.985Z,50.62
2023-02-19T15:01:39.115Z,51.18
2023-02-19T15:04:06.681Z,50.24
2023-02-19T15:06:35.896Z,50.77
2023-02-19T15:09:07.209Z,51.72
2023-02-19T15:11:37.497Z,51.63
2023-02-19T15:14:06.040Z,51.12
2023-02-19T15:16:35.735Z,52.94
2023-02-19T15:19:05.651Z,52.37
2023-02-19T15:21:33.540Z,52.29
2023-02-19T15:24:02.354Z,53.55
2023-02-19T15:26:36.028Z,53.77
2023-02-19T15:29:14.156Z,53.53
2023-02-19T15:31:52.485Z,52.69
2023-02-19T15:34:23.147Z,54.02
2023-02-19T15:36:51.791Z,53.52
2023-02-19T15:39:26.134Z,54.41
2023-02-19T15:42:00.105Z,54.59
2023-02-19T15:44:44.393Z,54.69
2023-02-19T15:47:19.182Z,55.87
2023-02-19T15:49:54.665Z,53.59
2023-02-19T15:52:30.491Z,54.48
2023-02-19T15:55:17.021Z,53.73
2023-02-19T15:57:49.846Z,54.90
2023-02-19T16:00:16.608Z,54.12
2023-02-19T16:02:46.484Z,55.56
2023-02-19T16:05:17.962Z,55.77
2023-02-19T16:07:44.683Z,56.11
2023-02-19T16:10:24.204Z,56.18
2023-02-19T16:13:01.484Z,55.39
2023-02-19T16:15:29.860Z,56.84
2023-02-19T16:17:57.816Z,55.79
2023-02-19T16:20:33.565Z,56.79
2023-02-19T16:23:05.818Z,56.64
2023-02-19T16:25:46.079Z,56.92
2023-02-19T16:28:24.095Z,56.60
2023-02-19T16:31:20.700Z,56.45
2023-02-19T16:33:48.783Z,57.28
2023-02-19T16:36:19.477Z,57.23
2023-02-19T16:39:08.147Z,57.18
2023-02-19T16:41:40.065Z,57.91
2023-02-19T16:44:24.950Z,57.78
2023-02-19T16:46:58.166Z,57.68
2023-02-19T16:49:25.007Z,57.75
2023-02-19T16:51:54.020Z,58.25
2023-02-19T16:54:20.901Z,57.96
2023-02-19T16:56:47.666Z,58.18
2023-02-19T16:59:14.465Z,57.92
2023-02-19T17:01:41.233Z,58.38
2023-02-19T17:04:10.102Z,58.48
2023-02-19T17:06:40.331Z,58.76
2023-02-19T17:09:09.053Z,59.24
2023-02-19T17:11:36.398Z,58.94
2023-02-19T17:14:03.517Z,58.92
2023-02-19T17:16:34.402Z,59.80
2023-02-19T17:19:05.732Z,60.12
2023-02-19T17:21:33.501Z,60.20
2023-02-19T17:24:00.230Z,60.83
2023-02-19T17:26:29.574Z,61.05
2023-02-19T17:28:57.159Z,61.28
2023-02-19T17:31:24.278Z,61.38
2023-02-19T17:33:51.896Z,61.99
2023-02-19T17:36:30.972Z,62.08
2023-02-19T17:39:02.283Z,62.21
2023-02-19T17:41:29.433Z,61.93
2023-02-19T17:43:56.269Z,62.38
2023-02-19T17:46:25.203Z,62.39
2023-02-19T17:48:52.758Z,62.79
2023-02-19T17:51:19.705Z,62.85
2023-02-19T17:53:46.807Z,62.98
2023-02-19T17:56:22.270Z,63.04
2023-02-19T17:58:50.024Z,63.51
2023-02-19T18:01:16.912Z,63.39
2023-02-19T18:03:43.985Z,64.27
2023-02-19T18:06:11.398Z,64.37
2023-02-19T18:08:38.130Z,64.54
2023-02-19T18:11:07.032Z,64.40
2023-02-19T18:13:33.762Z,64.15
2023-02-19T18:16:01.035Z,64.73
2023-02-19T18:18:27.707Z,64.98
2023-02-19T18:20:54.411Z,64.82
2023-02-19T18:23:21.202Z,65.28
2023-02-19T18:25:47.911Z,64.98
2023-02-19T18:28:15.827Z,65.21
2023-02-19T18:30:44.316Z,65.24
2023-02-19T18:33:13.335Z,65.02
2023-02-19T18:35:40.128Z,65.18
2023-02-19T18:38:07.003Z,65.64
2023-02-19T18:40:33.977Z,65.60
2023-02-19T18:43:00.844Z,65.53
2023-02-19T18:45:29.747Z,65.83
2023-02-19T18:47:56.617Z,65.86
2023-02-19T18:50:23.338Z,65.82
2023-02-19T18:52:50.156Z,66.39
2023-02-19T18:55:17.052Z,66.23
2023-02-19T18:57:44.389Z,66.27
2023-02-19T19:00:16.046Z,66.34
2023-02-19T19:02:49.009Z,66.24
2023-02-19T19:05:23.051Z,66.29
2023-02-19T19:07:55.487Z,66.47
2023-02-19T19:10:22.686Z,66.44
2023-02-19T19:12:54.220Z,66.64
2023-02-19T19:15:21.960Z,66.65
2023-02-19T19:17:48.795Z,66.83
2023-02-19T19:20:20.627Z,67.02
2023-02-19T19:22:51.266Z,67.23
2023-02-19T19:25:18.671Z,67.08
2023-02-19T19:27:46.175Z,67.17
2023-02-19T19:30:13.421Z,67.35
2023-02-19T19:32:40.219Z,67.35
2023-02-19T19:35:07.186Z,67.40
2023-02-19T19:37:33.901Z,67.41
2023-02-19T19:40:00.604Z,67.66
2023-02-19T19:42:28.386Z,67.54
2023-02-19T19:44:55.966Z,67.66
2023-02-19T19:47:22.816Z,67.56
2023-02-19T19:49:49.463Z,67.80
2023-02-19T19:52:16.098Z,67.78
2023-02-19T19:54:43.361Z,67.66
2023-02-19T19:57:10.625Z,67.62
2023-02-19T19:59:39.376Z,67.81
2023-02-19T20:02:07.280Z,67.78
2023-02-19T20:04:33.909Z,67.99
2023-02-19T20:07:00.742Z,68.04
2023-02-19T20:09:29.217Z,68.10
2023-02-19T20:11:56.156Z,68.31
2023-02-19T20:14:23.682Z,68.28
2023-02-19T20:16:50.855Z,68.43
2023-02-19T20:19:18.581Z,68.22
2023-02-19T20:21:50.547Z,68.18
2023-02-19T20:24:28.687Z,68.38
2023-02-19T20:27:00.422Z,68.19
2023-02-19T20:29:29.144Z,68.29
2023-02-19T20:31:59.356Z,68.44
2023-02-19T20:34:26.481Z,68.41
2023-02-19T20:36:53.251Z,68.44
2023-02-19T20:39:21.462Z,68.88
2023-02-19T20:41:51.093Z,68.75
2023-02-19T20:44:18.614Z,69.00
2023-02-19T20:46:49.934Z,69.19
2023-02-19T20:49:18.433Z,69.05
2023-02-19T20:51:45.000Z,69.59
2023-02-19T20:54:11.827Z,69.63
2023-02-19T20:56:44.089Z,69.69
2023-02-19T20:59:12.815Z,69.61
2023-02-19T21:01:39.689Z,69.74
2023-02-19T21:04:09.899Z,69.78
2023-02-19T21:06:36.742Z,69.66
2023-02-19T21:09:04.308Z,69.69
2023-02-19T21:11:31.062Z,69.71
2023-02-19T21:13:59.336Z,69.83
2023-02-19T21:16:27.458Z,69.97
2023-02-19T21:18:54.377Z,69.90
2023-02-19T21:21:25.568Z,70.23
2023-02-19T21:23:55.670Z,70.16
2023-02-19T21:26:23.365Z,70.59
2023-02-19T21:28:53.739Z,70.43
2023-02-19T21:31:22.032Z,70.37
2023-02-19T21:33:50.040Z,70.62
2023-02-19T21:36:18.484Z,70.67
2023-02-19T21:38:45.161Z,70.85
2023-02-19T21:41:11.856Z,70.95
2023-02-19T21:43:38.488Z,70.88
2023-02-19T21:46:05.316Z,71.06
2023-02-19T21:48:32.178Z,71.04
2023-02-19T21:50:58.851Z,71.10
2023-02-19T21:53:25.621Z,71.55
2023-02-19T21:55:58.226Z,71.58
2023-02-19T21:58:26.244Z,71.82
2023-02-19T22:00:54.310Z,72.62
2023-02-19T22:03:21.257Z,72.27
2023-02-19T22:05:47.912Z,72.27
2023-02-19T22:08:17.694Z,72.70
2023-02-19T22:10:44.968Z,72.69
2023-02-19T22:13:11.806Z,72.50
2023-02-19T22:15:38.540Z,72.66
2023-02-19T22:18:05.614Z,72.35
2023-02-19T22:20:32.498Z,72.01
2023-02-19T22:22:59.136Z,72.12
2023-02-19T22:25:25.807Z,72.04
2023-02-19T22:27:55.254Z,71.71
2023-02-19T22:30:21.959Z,71.69
2023-02-19T22:32:48.671Z,72.12
2023-02-19T22:35:15.896Z,72.01
2023-02-19T22:37:42.632Z,72.11
2023-02-19T22:40:09.655Z,72.08
2023-02-19T22:42:36.785Z,71.83
2023-02-19T22:45:03.698Z,72.36
2023-02-19T22:47:30.373Z,72.21
2023-02-19T22:49:57.092Z,72.40
2023-02-19T22:52:28.064Z,72.02
2023-02-19T22:54:55.681Z,72.07
2023-02-19T22:57:22.412Z,72.04
2023-02-19T22:59:49.067Z,72.03
2023-02-19T23:02:15.753Z,71.79
2023-02-19T23:04:42.400Z,71.86
2023-02-19T23:07:09.230Z,71.88
2023-02-19T23:09:36.034Z,71.61
2023-02-19T23:12:10.713Z,71.92
2023-02-19T23:14:37.869Z,71.94
2023-02-19T23:17:04.676Z,72.97
2023-02-19T23:19:31.911Z,72.37
2023-02-19T23:21:58.835Z,72.10
2023-02-19T23:24:25.567Z,72.75
2023-02-19T23:26:53.495Z,72.57
2023-02-19T23:29:26.981Z,72.70
2023-02-19T23:31:54.376Z,72.77
2023-02-19T23:34:21.209Z,72.84
2023-02-19T23:36:49.740Z,72.69
2023-02-19T23:39:18.648Z,72.67
2023-02-19T23:41:52.167Z,72.74
2023-02-19T23:44:19.625Z,72.80
2023-02-19T23:46:46.340Z,72.96
2023-02-19T23:49:16.238Z,72.84
2023-02-19T23:51:42.843Z,73.18
2023-02-19T23:54:09.531Z,73.55
2023-02-19T23:56:36.241Z,73.53
2023-02-19T23:59:02.991Z,73.60
